sensor_id;sensor_type;location;lat;lon;timestamp;P1;durP1;ratioP1;P2;durP2;ratioP2
24044;SDS011;26257;49.442;8.422;2022-10-19T00:01:50;27.65;;;15.82;;
24044;SDS011;26257;49.442;8.422;2022-10-19T00:04:16;30.77;;;16.58;;
24044;SDS011;26257;49.442;8.422;2022-10-19T00:06:43;26.60;;;15.93;;
24044;SDS011;26257;49.442;8.422;2022-10-19T00:09:10;25.75;;;16.23;;
24044;SDS011;26257;49.442;8.422;2022-10-19T00:11:39;26.75;;;15.57;;
24044;SDS011;26257;49.442;8.422;2022-10-19T00:14:07;25.88;;;15.65;;
24044;SDS011;26257;49.442;8.422;2022-10-19T00:16:35;32.83;;;16.45;;
24044;SDS011;26257;49.442;8.422;2022-10-19T00:19:04;29.05;;;17.42;;
24044;SDS011;26257;49.442;8.422;2022-10-19T00:21:32;32.70;;;18.67;;
24044;SDS011;26257;49.442;8.422;2022-10-19T00:23:57;32.22;;;18.05;;
24044;SDS011;26257;49.442;8.422;2022-10-19T00:26:26;35.63;;;19.77;;
24044;SDS011;26257;49.442;8.422;2022-10-19T00:28:52;30.38;;;18.60;;
24044;SDS011;26257;49.442;8.422;2022-10-19T00:31:19;33.97;;;19.08;;
24044;SDS011;26257;49.442;8.422;2022-10-19T00:33:45;34.40;;;19.40;;
24044;SDS011;26257;49.442;8.422;2022-10-19T00:36:30;34.58;;;17.30;;
24044;SDS011;26257;49.442;8.422;2022-10-19T00:38:58;30.92;;;17.95;;
24044;SDS011;26257;49.442;8.422;2022-10-19T00:41:25;26.55;;;16.73;;
24044;SDS011;26257;49.442;8.422;2022-10-19T00:43:56;28.42;;;17.42;;
24044;SDS011;26257;49.442;8.422;2022-10-19T00:46:22;27.50;;;17.42;;
24044;SDS011;26257;49.442;8.422;2022-10-19T00:48:49;30.10;;;17.05;;
24044;SDS011;26257;49.442;8.422;2022-10-19T00:51:17;29.65;;;17.67;;
24044;SDS011;26257;49.442;8.422;2022-10-19T00:53:43;31.05;;;17.45;;
24044;SDS011;26257;49.442;8.422;2022-10-19T00:56:10;29.33;;;17.70;;
24044;SDS011;26257;49.442;8.422;2022-10-19T00:58:38;31.70;;;18.33;;
24044;SDS011;26257;49.442;8.422;2022-10-19T01:01:06;31.40;;;18.58;;
24044;SDS011;26257;49.442;8.422;2022-10-19T01:03:34;30.00;;;18.65;;
24044;SDS011;26257;49.442;8.422;2022-10-19T01:06:00;32.95;;;19.00;;
24044;SDS011;26257;49.442;8.422;2022-10-19T01:08:27;28.08;;;17.50;;
24044;SDS011;26257;49.442;8.422;2022-10-19T01:14:06;27.08;;;17.50;;
24044;SDS011;26257;49.442;8.422;2022-10-19T01:17:02;33.60;;;16.65;;
24044;SDS011;26257;49.442;8.422;2022-10-19T01:30:56;28.10;;;17.85;;
24044;SDS011;26257;49.442;8.422;2022-10-19T01:36:05;26.60;;;16.13;;
24044;SDS011;26257;49.442;8.422;2022-10-19T01:41:47;31.77;;;17.45;;
24044;SDS011;26257;49.442;8.422;2022-10-19T01:46:54;26.98;;;16.13;;
24044;SDS011;26257;49.442;8.422;2022-10-19T01:49:31;28.73;;;15.87;;
24044;SDS011;26257;49.442;8.422;2022-10-19T01:51:59;28.50;;;15.45;;
24044;SDS011;26257;49.442;8.422;2022-10-19T01:54:29;26.58;;;16.23;;
24044;SDS011;26257;49.442;8.422;2022-10-19T01:57:00;27.30;;;15.27;;
24044;SDS011;26257;49.442;8.422;2022-10-19T01:59:29;28.17;;;16.45;;
24044;SDS011;26257;49.442;8.422;2022-10-19T02:01:57;26.67;;;15.23;;
24044;SDS011;26257;49.442;8.422;2022-10-19T02:04:23;26.35;;;15.45;;
24044;SDS011;26257;49.442;8.422;2022-10-19T02:06:49;34.00;;;19.50;;
24044;SDS011;26257;49.442;8.422;2022-10-19T02:09:17;37.42;;;19.42;;
24044;SDS011;26257;49.442;8.422;2022-10-19T02:11:44;38.58;;;20.77;;
24044;SDS011;26257;49.442;8.422;2022-10-19T02:14:14;77.55;;;26.85;;
24044;SDS011;26257;49.442;8.422;2022-10-19T02:16:48;52.72;;;23.08;;
24044;SDS011;26257;49.442;8.422;2022-10-19T02:19:23;46.00;;;22.67;;
24044;SDS011;26257;49.442;8.422;2022-10-19T02:21:49;80.22;;;27.27;;
24044;SDS011;26257;49.442;8.422;2022-10-19T02:24:16;80.25;;;26.13;;
24044;SDS011;26257;49.442;8.422;2022-10-19T02:26:41;70.20;;;27.20;;
24044;SDS011;26257;49.442;8.422;2022-10-19T02:29:07;87.68;;;29.95;;
24044;SDS011;26257;49.442;8.422;2022-10-19T02:31:34;240.80;;;37.13;;
24044;SDS011;26257;49.442;8.422;2022-10-19T02:34:00;70.38;;;28.52;;
24044;SDS011;26257;49.442;8.422;2022-10-19T02:36:25;49.28;;;24.27;;
24044;SDS011;26257;49.442;8.422;2022-10-19T02:38:51;38.13;;;19.60;;
24044;SDS011;26257;49.442;8.422;2022-10-19T02:41:17;31.92;;;16.67;;
24044;SDS011;26257;49.442;8.422;2022-10-19T03:08:37;62.53;;;22.77;;
24044;SDS011;26257;49.442;8.422;2022-10-19T03:11:02;85.15;;;23.58;;
24044;SDS011;26257;49.442;8.422;2022-10-19T03:13:28;61.38;;;21.67;;
24044;SDS011;26257;49.442;8.422;2022-10-19T03:15:53;47.13;;;22.65;;
24044;SDS011;26257;49.442;8.422;2022-10-19T03:18:19;41.25;;;21.85;;
24044;SDS011;26257;49.442;8.422;2022-10-19T03:20:44;45.33;;;21.05;;
24044;SDS011;26257;49.442;8.422;2022-10-19T03:23:09;44.78;;;19.63;;
24044;SDS011;26257;49.442;8.422;2022-10-19T03:25:35;43.95;;;20.90;;
24044;SDS011;26257;49.442;8.422;2022-10-19T03:28:00;44.90;;;21.13;;
24044;SDS011;26257;49.442;8.422;2022-10-19T03:30:26;42.58;;;20.73;;
24044;SDS011;26257;49.442;8.422;2022-10-19T03:32:51;58.55;;;21.05;;
24044;SDS011;26257;49.442;8.422;2022-10-19T03:35:16;45.28;;;22.10;;
24044;SDS011;26257;49.442;8.422;2022-10-19T03:37:42;50.03;;;23.08;;
24044;SDS011;26257;49.442;8.422;2022-10-19T03:40:07;74.43;;;25.08;;
24044;SDS011;26257;49.442;8.422;2022-10-19T03:42:33;51.30;;;22.80;;
24044;SDS011;26257;49.442;8.422;2022-10-19T03:44:59;51.50;;;23.80;;
24044;SDS011;26257;49.442;8.422;2022-10-19T03:47:24;67.65;;;25.73;;
24044;SDS011;26257;49.442;8.422;2022-10-19T03:49:50;47.10;;;23.20;;
24044;SDS011;26257;49.442;8.422;2022-10-19T03:52:18;50.22;;;20.42;;
24044;SDS011;26257;49.442;8.422;2022-10-19T03:54:44;40.70;;;20.38;;
24044;SDS011;26257;49.442;8.422;2022-10-19T03:57:10;39.92;;;20.02;;
24044;SDS011;26257;49.442;8.422;2022-10-19T03:59:36;44.78;;;20.33;;
24044;SDS011;26257;49.442;8.422;2022-10-19T04:02:02;49.13;;;19.55;;
24044;SDS011;26257;49.442;8.422;2022-10-19T04:04:28;43.50;;;20.25;;
24044;SDS011;26257;49.442;8.422;2022-10-19T04:06:53;39.33;;;20.35;;
24044;SDS011;26257;49.442;8.422;2022-10-19T04:09:19;45.97;;;20.98;;
24044;SDS011;26257;49.442;8.422;2022-10-19T04:11:46;51.45;;;22.70;;
24044;SDS011;26257;49.442;8.422;2022-10-19T04:14:13;51.97;;;22.23;;
24044;SDS011;26257;49.442;8.422;2022-10-19T04:16:39;51.92;;;24.20;;
24044;SDS011;26257;49.442;8.422;2022-10-19T04:19:05;59.60;;;23.48;;
24044;SDS011;26257;49.442;8.422;2022-10-19T04:21:31;50.92;;;22.10;;
24044;SDS011;26257;49.442;8.422;2022-10-19T04:24:00;51.08;;;21.30;;
24044;SDS011;26257;49.442;8.422;2022-10-19T04:26:28;43.45;;;21.35;;
24044;SDS011;26257;49.442;8.422;2022-10-19T04:28:55;51.08;;;21.38;;
24044;SDS011;26257;49.442;8.422;2022-10-19T04:31:25;49.05;;;22.90;;
24044;SDS011;26257;49.442;8.422;2022-10-19T04:33:51;47.75;;;22.30;;
24044;SDS011;26257;49.442;8.422;2022-10-19T04:36:17;49.10;;;22.73;;
24044;SDS011;26257;49.442;8.422;2022-10-19T04:38:42;49.60;;;23.08;;
24044;SDS011;26257;49.442;8.422;2022-10-19T04:41:09;46.15;;;22.30;;
24044;SDS011;26257;49.442;8.422;2022-10-19T04:43:37;46.92;;;23.08;;
24044;SDS011;26257;49.442;8.422;2022-10-19T04:46:07;47.05;;;22.38;;
24044;SDS011;26257;49.442;8.422;2022-10-19T04:48:37;52.75;;;22.80;;
24044;SDS011;26257;49.442;8.422;2022-10-19T04:51:03;65.88;;;25.40;;
24044;SDS011;26257;49.442;8.422;2022-10-19T04:53:29;49.47;;;22.75;;
24044;SDS011;26257;49.442;8.422;2022-10-19T04:55:56;53.80;;;23.85;;
24044;SDS011;26257;49.442;8.422;2022-10-19T04:58:21;51.67;;;25.27;;
24044;SDS011;26257;49.442;8.422;2022-10-19T05:00:46;56.78;;;23.77;;
24044;SDS011;26257;49.442;8.422;2022-10-19T05:03:12;54.90;;;23.77;;
24044;SDS011;26257;49.442;8.422;2022-10-19T05:05:37;60.78;;;24.63;;
24044;SDS011;26257;49.442;8.422;2022-10-19T05:08:03;56.42;;;24.40;;
24044;SDS011;26257;49.442;8.422;2022-10-19T05:10:29;61.17;;;24.38;;
24044;SDS011;26257;49.442;8.422;2022-10-19T05:12:54;49.55;;;24.42;;
24044;SDS011;26257;49.442;8.422;2022-10-19T05:15:19;63.05;;;24.83;;
24044;SDS011;26257;49.442;8.422;2022-10-19T05:17:45;52.72;;;24.45;;
24044;SDS011;26257;49.442;8.422;2022-10-19T05:20:10;83.18;;;24.73;;
24044;SDS011;26257;49.442;8.422;2022-10-19T05:22:39;165.50;;;28.40;;
24044;SDS011;26257;49.442;8.422;2022-10-19T05:25:05;71.68;;;25.50;;
24044;SDS011;26257;49.442;8.422;2022-10-19T05:27:31;54.45;;;24.70;;
24044;SDS011;26257;49.442;8.422;2022-10-19T05:29:57;50.33;;;24.48;;
24044;SDS011;26257;49.442;8.422;2022-10-19T05:32:22;53.78;;;25.55;;
24044;SDS011;26257;49.442;8.422;2022-10-19T05:34:48;55.28;;;24.58;;
24044;SDS011;26257;49.442;8.422;2022-10-19T05:37:14;53.67;;;26.02;;
24044;SDS011;26257;49.442;8.422;2022-10-19T05:39:40;48.47;;;23.42;;
24044;SDS011;26257;49.442;8.422;2022-10-19T05:42:06;47.03;;;23.83;;
24044;SDS011;26257;49.442;8.422;2022-10-19T05:44:31;44.72;;;21.65;;
24044;SDS011;26257;49.442;8.422;2022-10-19T05:46:56;42.70;;;21.50;;
24044;SDS011;26257;49.442;8.422;2022-10-19T05:49:22;41.10;;;20.65;;
24044;SDS011;26257;49.442;8.422;2022-10-19T05:51:47;39.38;;;20.20;;
24044;SDS011;26257;49.442;8.422;2022-10-19T05:54:14;37.08;;;18.52;;
24044;SDS011;26257;49.442;8.422;2022-10-19T05:56:40;33.15;;;18.58;;
24044;SDS011;26257;49.442;8.422;2022-10-19T05:59:07;32.33;;;18.13;;
24044;SDS011;26257;49.442;8.422;2022-10-19T06:01:35;34.38;;;19.40;;
24044;SDS011;26257;49.442;8.422;2022-10-19T06:04:00;38.25;;;19.20;;
24044;SDS011;26257;49.442;8.422;2022-10-19T06:06:27;30.40;;;17.40;;
24044;SDS011;26257;49.442;8.422;2022-10-19T06:08:53;31.30;;;16.77;;
24044;SDS011;26257;49.442;8.422;2022-10-19T06:11:25;35.88;;;19.00;;
24044;SDS011;26257;49.442;8.422;2022-10-19T06:13:53;35.85;;;19.08;;
24044;SDS011;26257;49.442;8.422;2022-10-19T06:16:20;30.42;;;17.88;;
24044;SDS011;26257;49.442;8.422;2022-10-19T06:18:47;38.15;;;20.30;;
24044;SDS011;26257;49.442;8.422;2022-10-19T06:21:14;34.88;;;19.35;;
24044;SDS011;26257;49.442;8.422;2022-10-19T06:23:41;35.15;;;19.88;;
24044;SDS011;26257;49.442;8.422;2022-10-19T06:26:08;36.97;;;20.70;;
24044;SDS011;26257;49.442;8.422;2022-10-19T06:28:38;39.92;;;19.27;;
24044;SDS011;26257;49.442;8.422;2022-10-19T06:31:05;33.47;;;20.20;;
24044;SDS011;26257;49.442;8.422;2022-10-19T06:33:31;40.67;;;21.92;;
24044;SDS011;26257;49.442;8.422;2022-10-19T06:38:56;42.22;;;22.38;;
24044;SDS011;26257;49.442;8.422;2022-10-19T06:41:23;47.50;;;24.35;;
24044;SDS011;26257;49.442;8.422;2022-10-19T06:43:49;48.72;;;23.10;;
24044;SDS011;26257;49.442;8.422;2022-10-19T06:46:16;42.38;;;22.58;;
24044;SDS011;26257;49.442;8.422;2022-10-19T06:48:54;45.72;;;24.83;;
24044;SDS011;26257;49.442;8.422;2022-10-19T06:51:22;46.15;;;24.83;;
24044;SDS011;26257;49.442;8.422;2022-10-19T06:53:49;48.50;;;23.42;;
24044;SDS011;26257;49.442;8.422;2022-10-19T06:56:15;53.58;;;23.73;;
24044;SDS011;26257;49.442;8.422;2022-10-19T06:58:40;47.20;;;24.23;;
24044;SDS011;26257;49.442;8.422;2022-10-19T07:01:06;50.33;;;24.55;;
24044;SDS011;26257;49.442;8.422;2022-10-19T07:03:32;46.05;;;23.15;;
24044;SDS011;26257;49.442;8.422;2022-10-19T07:05:59;48.67;;;23.67;;
24044;SDS011;26257;49.442;8.422;2022-10-19T07:08:29;37.25;;;21.92;;
24044;SDS011;26257;49.442;8.422;2022-10-19T07:10:56;39.00;;;21.27;;
24044;SDS011;26257;49.442;8.422;2022-10-19T07:13:26;40.10;;;21.40;;
24044;SDS011;26257;49.442;8.422;2022-10-19T07:15:59;39.47;;;20.67;;
24044;SDS011;26257;49.442;8.422;2022-10-19T07:18:30;42.72;;;21.33;;
24044;SDS011;26257;49.442;8.422;2022-10-19T07:20:58;43.72;;;22.02;;
24044;SDS011;26257;49.442;8.422;2022-10-19T07:23:26;39.55;;;21.90;;
24044;SDS011;26257;49.442;8.422;2022-10-19T07:25:53;38.60;;;21.33;;
24044;SDS011;26257;49.442;8.422;2022-10-19T07:28:24;32.05;;;19.77;;
24044;SDS011;26257;49.442;8.422;2022-10-19T07:30:49;40.10;;;21.67;;
24044;SDS011;26257;49.442;8.422;2022-10-19T07:33:15;37.72;;;21.95;;
24044;SDS011;26257;49.442;8.422;2022-10-19T07:35:40;37.42;;;21.40;;
24044;SDS011;26257;49.442;8.422;2022-10-19T07:38:06;40.35;;;23.00;;
24044;SDS011;26257;49.442;8.422;2022-10-19T07:40:31;43.58;;;21.58;;
24044;SDS011;26257;49.442;8.422;2022-10-19T07:42:57;34.95;;;20.80;;
24044;SDS011;26257;49.442;8.422;2022-10-19T07:45:22;36.83;;;21.30;;
24044;SDS011;26257;49.442;8.422;2022-10-19T07:47:48;39.38;;;22.30;;
24044;SDS011;26257;49.442;8.422;2022-10-19T07:50:13;39.95;;;22.20;;
24044;SDS011;26257;49.442;8.422;2022-10-19T07:52:38;35.05;;;20.45;;
24044;SDS011;26257;49.442;8.422;2022-10-19T07:55:04;34.83;;;20.17;;
24044;SDS011;26257;49.442;8.422;2022-10-19T07:57:31;35.00;;;20.33;;
24044;SDS011;26257;49.442;8.422;2022-10-19T07:59:56;36.45;;;20.75;;
24044;SDS011;26257;49.442;8.422;2022-10-19T08:02:21;40.17;;;22.02;;
24044;SDS011;26257;49.442;8.422;2022-10-19T08:04:47;35.45;;;21.00;;
24044;SDS011;26257;49.442;8.422;2022-10-19T08:07:12;36.03;;;18.25;;
24044;SDS011;26257;49.442;8.422;2022-10-19T08:09:38;27.65;;;17.45;;
24044;SDS011;26257;49.442;8.422;2022-10-19T08:12:03;29.98;;;17.67;;
24044;SDS011;26257;49.442;8.422;2022-10-19T08:14:30;24.73;;;16.35;;
24044;SDS011;26257;49.442;8.422;2022-10-19T08:16:56;37.00;;;20.20;;
24044;SDS011;26257;49.442;8.422;2022-10-19T08:19:21;34.63;;;19.85;;
24044;SDS011;26257;49.442;8.422;2022-10-19T08:21:48;25.95;;;17.05;;
24044;SDS011;26257;49.442;8.422;2022-10-19T08:24:14;28.67;;;16.15;;
24044;SDS011;26257;49.442;8.422;2022-10-19T08:26:41;23.48;;;15.55;;
24044;SDS011;26257;49.442;8.422;2022-10-19T08:29:14;23.80;;;15.27;;
24044;SDS011;26257;49.442;8.422;2022-10-19T08:31:41;27.70;;;15.75;;
24044;SDS011;26257;49.442;8.422;2022-10-19T08:34:08;27.45;;;17.23;;
24044;SDS011;26257;49.442;8.422;2022-10-19T08:36:34;23.90;;;14.57;;
24044;SDS011;26257;49.442;8.422;2022-10-19T08:39:00;21.60;;;13.93;;
24044;SDS011;26257;49.442;8.422;2022-10-19T08:41:36;23.40;;;14.80;;
24044;SDS011;26257;49.442;8.422;2022-10-19T08:46:55;22.40;;;14.00;;
24044;SDS011;26257;49.442;8.422;2022-10-19T09:08:03;29.52;;;20.63;;
24044;SDS011;26257;49.442;8.422;2022-10-19T09:10:31;35.20;;;22.55;;
24044;SDS011;26257;49.442;8.422;2022-10-19T09:16:12;38.20;;;24.00;;
24044;SDS011;26257;49.442;8.422;2022-10-19T09:18:39;37.90;;;24.50;;
24044;SDS011;26257;49.442;8.422;2022-10-19T09:26:27;38.92;;;24.27;;
24044;SDS011;26257;49.442;8.422;2022-10-19T09:28:58;40.95;;;24.88;;
24044;SDS011;26257;49.442;8.422;2022-10-19T09:31:32;37.10;;;23.85;;
24044;SDS011;26257;49.442;8.422;2022-10-19T09:34:15;39.42;;;24.40;;
24044;SDS011;26257;49.442;8.422;2022-10-19T09:36:57;41.95;;;23.88;;
24044;SDS011;26257;49.442;8.422;2022-10-19T09:39:24;40.95;;;25.85;;
24044;SDS011;26257;49.442;8.422;2022-10-19T09:44:19;37.72;;;25.17;;
24044;SDS011;26257;49.442;8.422;2022-10-19T09:47:03;35.25;;;23.45;;
24044;SDS011;26257;49.442;8.422;2022-10-19T09:55:19;30.65;;;19.65;;
24044;SDS011;26257;49.442;8.422;2022-10-19T09:57:41;27.25;;;17.67;;
24044;SDS011;26257;49.442;8.422;2022-10-19T10:00:18;22.83;;;14.73;;
24044;SDS011;26257;49.442;8.422;2022-10-19T10:02:52;20.58;;;13.40;;
24044;SDS011;26257;49.442;8.422;2022-10-19T10:05:19;23.13;;;14.93;;
24044;SDS011;26257;49.442;8.422;2022-10-19T10:08:01;80.28;;;33.20;;
24044;SDS011;26257;49.442;8.422;2022-10-19T10:10:29;35.53;;;16.35;;
24044;SDS011;26257;49.442;8.422;2022-10-19T10:13:00;27.20;;;14.50;;
24044;SDS011;26257;49.442;8.422;2022-10-19T10:15:28;94.28;;;35.28;;
24044;SDS011;26257;49.442;8.422;2022-10-19T10:18:04;17.35;;;10.95;;
24044;SDS011;26257;49.442;8.422;2022-10-19T10:20:30;13.32;;;9.98;;
24044;SDS011;26257;49.442;8.422;2022-10-19T10:22:58;34.28;;;15.70;;
24044;SDS011;26257;49.442;8.422;2022-10-19T10:25:27;21.98;;;11.77;;
24044;SDS011;26257;49.442;8.422;2022-10-19T10:28:37;19.05;;;10.98;;
24044;SDS011;26257;49.442;8.422;2022-10-19T10:30:45;43.20;;;17.52;;
24044;SDS011;26257;49.442;8.422;2022-10-19T10:33:16;13.73;;;8.52;;
24044;SDS011;26257;49.442;8.422;2022-10-19T10:35:50;13.82;;;7.35;;
24044;SDS011;26257;49.442;8.422;2022-10-19T10:38:24;9.63;;;6.30;;
24044;SDS011;26257;49.442;8.422;2022-10-19T10:40:53;12.60;;;7.22;;
24044;SDS011;26257;49.442;8.422;2022-10-19T10:43:25;9.50;;;6.97;;
24044;SDS011;26257;49.442;8.422;2022-10-19T10:45:55;11.25;;;7.22;;
24044;SDS011;26257;49.442;8.422;2022-10-19T10:48:30;10.48;;;6.35;;
24044;SDS011;26257;49.442;8.422;2022-10-19T10:51:09;8.63;;;6.45;;
24044;SDS011;26257;49.442;8.422;2022-10-19T10:53:44;18.88;;;7.30;;
24044;SDS011;26257;49.442;8.422;2022-10-19T10:56:21;12.05;;;6.43;;
24044;SDS011;26257;49.442;8.422;2022-10-19T11:04:33;10.13;;;5.95;;
24044;SDS011;26257;49.442;8.422;2022-10-19T11:06:46;12.43;;;6.18;;
24044;SDS011;26257;49.442;8.422;2022-10-19T11:09:28;12.57;;;6.13;;
24044;SDS011;26257;49.442;8.422;2022-10-19T11:11:58;8.27;;;6.15;;
24044;SDS011;26257;49.442;8.422;2022-10-19T11:14:29;11.43;;;6.40;;
24044;SDS011;26257;49.442;8.422;2022-10-19T11:16:57;7.35;;;5.13;;
24044;SDS011;26257;49.442;8.422;2022-10-19T11:19:31;8.27;;;5.00;;
24044;SDS011;26257;49.442;8.422;2022-10-19T11:22:15;10.15;;;5.57;;
24044;SDS011;26257;49.442;8.422;2022-10-19T11:36:02;6.40;;;3.92;;
24044;SDS011;26257;49.442;8.422;2022-10-19T11:38:58;7.00;;;4.07;;
24044;SDS011;26257;49.442;8.422;2022-10-19T11:49:41;8.52;;;3.90;;
24044;SDS011;26257;49.442;8.422;2022-10-19T12:00:26;8.93;;;3.78;;
24044;SDS011;26257;49.442;8.422;2022-10-19T12:14:22;7.25;;;3.97;;
24044;SDS011;26257;49.442;8.422;2022-10-19T12:16:52;7.47;;;4.35;;
24044;SDS011;26257;49.442;8.422;2022-10-19T12:19:26;7.20;;;4.10;;
24044;SDS011;26257;49.442;8.422;2022-10-19T12:22:00;5.95;;;4.40;;
24044;SDS011;26257;49.442;8.422;2022-10-19T12:26:54;6.30;;;3.45;;
24044;SDS011;26257;49.442;8.422;2022-10-19T12:29:28;7.65;;;3.30;;
24044;SDS011;26257;49.442;8.422;2022-10-19T12:31:58;6.45;;;3.47;;
24044;SDS011;26257;49.442;8.422;2022-10-19T12:37:14;8.13;;;4.53;;
24044;SDS011;26257;49.442;8.422;2022-10-19T12:42:47;5.77;;;3.10;;
24044;SDS011;26257;49.442;8.422;2022-10-19T12:48:14;9.52;;;2.83;;
24044;SDS011;26257;49.442;8.422;2022-10-19T12:58:44;4.18;;;2.45;;
24044;SDS011;26257;49.442;8.422;2022-10-19T13:01:16;6.10;;;2.22;;
24044;SDS011;26257;49.442;8.422;2022-10-19T13:04:10;3.38;;;2.15;;
24044;SDS011;26257;49.442;8.422;2022-10-19T13:06:45;6.80;;;2.40;;
24044;SDS011;26257;49.442;8.422;2022-10-19T13:09:37;11.18;;;3.30;;
24044;SDS011;26257;49.442;8.422;2022-10-19T13:38:33;5.80;;;1.98;;
24044;SDS011;26257;49.442;8.422;2022-10-19T13:46:42;3.00;;;1.40;;
24044;SDS011;26257;49.442;8.422;2022-10-19T13:49:50;3.85;;;1.50;;
24044;SDS011;26257;49.442;8.422;2022-10-19T13:57:22;6.93;;;1.50;;
24044;SDS011;26257;49.442;8.422;2022-10-19T14:14:21;3.38;;;1.95;;
24044;SDS011;26257;49.442;8.422;2022-10-19T14:16:55;3.55;;;1.80;;
24044;SDS011;26257;49.442;8.422;2022-10-19T14:19:26;2.83;;;1.30;;
24044;SDS011;26257;49.442;8.422;2022-10-19T14:21:55;2.60;;;1.60;;
24044;SDS011;26257;49.442;8.422;2022-10-19T14:24:26;6.60;;;1.77;;
24044;SDS011;26257;49.442;8.422;2022-10-19T14:27:02;4.53;;;1.98;;
24044;SDS011;26257;49.442;8.422;2022-10-19T14:29:30;4.22;;;1.80;;
24044;SDS011;26257;49.442;8.422;2022-10-19T14:32:01;4.18;;;1.50;;
24044;SDS011;26257;49.442;8.422;2022-10-19T14:34:27;3.63;;;1.90;;
24044;SDS011;26257;49.442;8.422;2022-10-19T14:36:53;4.05;;;1.98;;
24044;SDS011;26257;49.442;8.422;2022-10-19T14:39:32;4.57;;;1.67;;
24044;SDS011;26257;49.442;8.422;2022-10-19T14:42:02;2.78;;;1.50;;
24044;SDS011;26257;49.442;8.422;2022-10-19T14:47:24;4.00;;;1.52;;
24044;SDS011;26257;49.442;8.422;2022-10-19T14:49:54;5.18;;;1.92;;
24044;SDS011;26257;49.442;8.422;2022-10-19T14:52:41;5.88;;;2.47;;
24044;SDS011;26257;49.442;8.422;2022-10-19T14:55:15;3.60;;;1.88;;
24044;SDS011;26257;49.442;8.422;2022-10-19T14:57:43;7.30;;;2.25;;
24044;SDS011;26257;49.442;8.422;2022-10-19T15:00:15;4.20;;;1.80;;
24044;SDS011;26257;49.442;8.422;2022-10-19T15:02:46;4.55;;;2.35;;
24044;SDS011;26257;49.442;8.422;2022-10-19T15:05:24;3.80;;;2.10;;
24044;SDS011;26257;49.442;8.422;2022-10-19T15:07:52;2.67;;;1.60;;
24044;SDS011;26257;49.442;8.422;2022-10-19T15:10:22;4.20;;;2.17;;
24044;SDS011;26257;49.442;8.422;2022-10-19T15:12:51;6.03;;;2.00;;
24044;SDS011;26257;49.442;8.422;2022-10-19T15:15:30;4.25;;;1.90;;
24044;SDS011;26257;49.442;8.422;2022-10-19T15:20:33;4.53;;;2.20;;
24044;SDS011;26257;49.442;8.422;2022-10-19T15:23:02;10.55;;;2.28;;
24044;SDS011;26257;49.442;8.422;2022-10-19T15:25:59;4.75;;;2.10;;
24044;SDS011;26257;49.442;8.422;2022-10-19T15:28:34;6.63;;;2.78;;
24044;SDS011;26257;49.442;8.422;2022-10-19T15:31:04;5.22;;;2.72;;
24044;SDS011;26257;49.442;8.422;2022-10-19T15:33:39;8.02;;;3.13;;
24044;SDS011;26257;49.442;8.422;2022-10-19T15:36:10;5.43;;;2.92;;
24044;SDS011;26257;49.442;8.422;2022-10-19T15:38:41;9.20;;;4.18;;
24044;SDS011;26257;49.442;8.422;2022-10-19T15:41:24;5.38;;;3.30;;
24044;SDS011;26257;49.442;8.422;2022-10-19T15:43:55;7.25;;;3.35;;
24044;SDS011;26257;49.442;8.422;2022-10-19T15:46:34;7.32;;;3.90;;
24044;SDS011;26257;49.442;8.422;2022-10-19T15:52:21;9.68;;;3.95;;
24044;SDS011;26257;49.442;8.422;2022-10-19T15:54:49;6.53;;;3.53;;
24044;SDS011;26257;49.442;8.422;2022-10-19T15:57:31;8.20;;;4.07;;
24044;SDS011;26257;49.442;8.422;2022-10-19T16:00:09;8.27;;;3.85;;
24044;SDS011;26257;49.442;8.422;2022-10-19T16:02:37;8.15;;;4.05;;
24044;SDS011;26257;49.442;8.422;2022-10-19T16:05:03;7.82;;;4.60;;
24044;SDS011;26257;49.442;8.422;2022-10-19T16:07:30;10.95;;;4.90;;
24044;SDS011;26257;49.442;8.422;2022-10-19T16:09:57;9.20;;;4.90;;
24044;SDS011;26257;49.442;8.422;2022-10-19T16:12:23;9.00;;;4.88;;
24044;SDS011;26257;49.442;8.422;2022-10-19T16:14:50;9.35;;;4.88;;
24044;SDS011;26257;49.442;8.422;2022-10-19T16:17:16;7.22;;;4.90;;
24044;SDS011;26257;49.442;8.422;2022-10-19T16:19:42;10.40;;;5.53;;
24044;SDS011;26257;49.442;8.422;2022-10-19T16:22:08;9.05;;;4.65;;
24044;SDS011;26257;49.442;8.422;2022-10-19T16:24:34;7.78;;;4.40;;
24044;SDS011;26257;49.442;8.422;2022-10-19T16:26:59;7.90;;;4.88;;
24044;SDS011;26257;49.442;8.422;2022-10-19T16:29:25;9.23;;;4.88;;
24044;SDS011;26257;49.442;8.422;2022-10-19T16:31:51;8.25;;;4.95;;
24044;SDS011;26257;49.442;8.422;2022-10-19T16:34:21;7.90;;;4.87;;
24044;SDS011;26257;49.442;8.422;2022-10-19T16:36:48;10.35;;;5.65;;
24044;SDS011;26257;49.442;8.422;2022-10-19T16:39:13;10.93;;;5.75;;
24044;SDS011;26257;49.442;8.422;2022-10-19T16:41:39;9.93;;;5.07;;
24044;SDS011;26257;49.442;8.422;2022-10-19T16:44:04;8.60;;;5.15;;
24044;SDS011;26257;49.442;8.422;2022-10-19T16:46:30;10.73;;;5.40;;
24044;SDS011;26257;49.442;8.422;2022-10-19T16:48:55;9.63;;;5.40;;
24044;SDS011;26257;49.442;8.422;2022-10-19T16:51:25;10.20;;;4.97;;
24044;SDS011;26257;49.442;8.422;2022-10-19T16:53:51;13.85;;;5.05;;
24044;SDS011;26257;49.442;8.422;2022-10-19T16:56:19;10.95;;;5.72;;
24044;SDS011;26257;49.442;8.422;2022-10-19T16:58:44;11.32;;;5.35;;
24044;SDS011;26257;49.442;8.422;2022-10-19T17:01:14;14.40;;;5.93;;
24044;SDS011;26257;49.442;8.422;2022-10-19T17:03:42;15.05;;;5.75;;
24044;SDS011;26257;49.442;8.422;2022-10-19T17:06:09;11.25;;;4.82;;
24044;SDS011;26257;49.442;8.422;2022-10-19T17:08:35;11.40;;;4.90;;
24044;SDS011;26257;49.442;8.422;2022-10-19T17:11:08;10.15;;;4.75;;
24044;SDS011;26257;49.442;8.422;2022-10-19T17:13:35;9.35;;;5.63;;
24044;SDS011;26257;49.442;8.422;2022-10-19T17:16:01;8.85;;;5.72;;
24044;SDS011;26257;49.442;8.422;2022-10-19T17:18:28;9.50;;;5.70;;
24044;SDS011;26257;49.442;8.422;2022-10-19T17:20:53;8.60;;;4.88;;
24044;SDS011;26257;49.442;8.422;2022-10-19T17:23:18;9.88;;;5.53;;
24044;SDS011;26257;49.442;8.422;2022-10-19T17:25:47;10.18;;;5.13;;
24044;SDS011;26257;49.442;8.422;2022-10-19T17:28:13;11.43;;;5.38;;
24044;SDS011;26257;49.442;8.422;2022-10-19T17:30:41;10.20;;;5.10;;
24044;SDS011;26257;49.442;8.422;2022-10-19T17:33:07;8.63;;;5.53;;
24044;SDS011;26257;49.442;8.422;2022-10-19T17:35:32;8.02;;;5.13;;
24044;SDS011;26257;49.442;8.422;2022-10-19T17:37:58;8.57;;;5.40;;
24044;SDS011;26257;49.442;8.422;2022-10-19T17:40:24;8.75;;;5.13;;
24044;SDS011;26257;49.442;8.422;2022-10-19T17:42:49;9.80;;;5.75;;
24044;SDS011;26257;49.442;8.422;2022-10-19T17:45:14;9.88;;;5.47;;
24044;SDS011;26257;49.442;8.422;2022-10-19T17:47:40;9.90;;;6.30;;
24044;SDS011;26257;49.442;8.422;2022-10-19T17:50:05;9.70;;;5.28;;
24044;SDS011;26257;49.442;8.422;2022-10-19T17:52:31;9.38;;;6.15;;
24044;SDS011;26257;49.442;8.422;2022-10-19T17:54:57;12.88;;;5.85;;
24044;SDS011;26257;49.442;8.422;2022-10-19T17:57:22;15.55;;;6.00;;
24044;SDS011;26257;49.442;8.422;2022-10-19T17:59:48;12.05;;;6.03;;
24044;SDS011;26257;49.442;8.422;2022-10-19T18:02:13;21.38;;;6.35;;
24044;SDS011;26257;49.442;8.422;2022-10-19T18:04:38;16.02;;;6.22;;
24044;SDS011;26257;49.442;8.422;2022-10-19T18:07:04;11.98;;;5.20;;
24044;SDS011;26257;49.442;8.422;2022-10-19T18:09:29;13.02;;;6.55;;
24044;SDS011;26257;49.442;8.422;2022-10-19T18:11:55;17.85;;;7.03;;
24044;SDS011;26257;49.442;8.422;2022-10-19T18:14:20;17.10;;;6.60;;